Time;durP1;ratioP1;P1;durP2;ratioP2;P2;SDS_P1;SDS_P2;PMS_P1;PMS_P2;Temp;Humidity;BMP_temperature;BMP_pressure;BME280_temperature;BME280_humidity;BME280_pressure;Samples;Min_cycle;Max_cycle;Signal;HPM_P1;HPM_P2
2020/02/06 00:00:30;;;;;;;4.799999;3.75;;;;;;;-2.95;100;96820.06;;;;
2020/02/06 00:02:11;;;;;;;4.799999;3.75;;;;;;;-2.95;100;96820.06;;;;
2020/02/06 00:04:04;;;;;;;6.6;3.75;;;;;;;-2.95;100;96812.14;;;;
2020/02/06 00:05:57;;;;;;;6.6;3.75;;;;;;;-2.95;100;96812.14;;;;
2020/02/06 00:08:12;;;;;;;6.6;3.75;;;;;;;-2.95;100;96812.14;;;;
2020/02/06 00:09:18;;;;;;;6.6;3.75;;;;;;;-2.95;100;96812.14;;;;
2020/02/06 00:10:50;;;;;;;6.6;3.75;;;;;;;-2.95;100;96812.14;;;;
2020/02/06 00:12:05;;;;;;;6.6;3.75;;;;;;;-2.95;100;96812.14;;;;
2020/02/06 00:13:54;;;;;;;7.349999;3.6;;;;;;;-3.06;100;96798;;;;
2020/02/06 00:15:28;;;;;;;7.349999;3.6;;;;;;;-3.06;100;96798;;;;
2020/02/06 00:16:31;;;;;;;7.349999;3.6;;;;;;;-3.06;100;96798;;;;
2020/02/06 00:17:38;;;;;;;7.349999;3.6;;;;;;;-3.06;100;96798;;;;
2020/02/06 00:18:39;;;;;;;7.349999;3.6;;;;;;;-3.06;100;96798;;;;
2020/02/06 00:19:40;;;;;;;7.349999;3.6;;;;;;;-3.06;100;96798;;;;
2020/02/06 00:20:40;;;;;;;7.349999;3.6;;;;;;;-3.06;100;96798;;;;
2020/02/06 00:21:45;;;;;;;7.349999;3.6;;;;;;;-3.06;100;96798;;;;
2020/02/06 00:22:50;;;;;;;7.349999;3.6;;;;;;;-3.06;100;96798;;;;
2020/02/06 00:23:53;;;;;;;7.349999;3.6;;;;;;;-3.06;100;96798;;;;
2020/02/06 00:24:54;;;;;;;5.7;4.05;;;;;;;-3.16;100;96792.21;;;;
2020/02/06 00:25:56;;;;;;;5.7;4.05;;;;;;;-3.16;100;96792.21;;;;
2020/02/06 00:27:00;;;;;;;5.7;4.05;;;;;;;-3.16;100;96792.21;;;;
2020/02/06 00:28:00;;;;;;;5.7;4.05;;;;;;;-3.16;100;96792.21;;;;
2020/02/06 00:29:01;;;;;;;5.7;4.05;;;;;;;-3.16;100;96792.21;;;;
2020/02/06 00:30:01;;;;;;;5.7;4.05;;;;;;;-3.16;100;96792.21;;;;
2020/02/06 00:31:02;;;;;;;5.7;4.05;;;;;;;-3.16;100;96792.21;;;;
2020/02/06 00:32:07;;;;;;;5.7;4.05;;;;;;;-3.16;100;96792.21;;;;
2020/02/06 00:33:08;;;;;;;5.7;4.05;;;;;;;-3.16;100;96792.21;;;;
2020/02/06 00:34:08;;;;;;;5.7;4.05;;;;;;;-3.16;100;96792.21;;;;
2020/02/06 00:35:12;;;;;;;6.6;3.55;;;;;;;-3.29;100;96787.91;;;;
2020/02/06 00:36:13;;;;;;;6.6;3.55;;;;;;;-3.29;100;96787.91;;;;
2020/02/06 00:37:13;;;;;;;6.6;3.55;;;;;;;-3.29;100;96787.91;;;;
2020/02/06 00:38:22;;;;;;;6.6;3.55;;;;;;;-3.29;100;96787.91;;;;
2020/02/06 00:39:23;;;;;;;6.6;3.55;;;;;;;-3.29;100;96787.91;;;;
2020/02/06 00:40:42;;;;;;;6.6;3.55;;;;;;;-3.29;100;96787.91;;;;
2020/02/06 00:41:44;;;;;;;6.6;3.55;;;;;;;-3.29;100;96787.91;;;;
2020/02/06 00:42:45;;;;;;;6.6;3.55;;;;;;;-3.29;100;96787.91;;;;
2020/02/06 00:43:45;;;;;;;6.6;3.55;;;;;;;-3.29;100;96787.91;;;;
2020/02/06 00:44:46;;;;;;;6.6;3.55;;;;;;;-3.29;100;96787.91;;;;
2020/02/06 00:45:47;;;;;;;6.6;3.55;;;;;;;-3.29;100;96787.91;;;;
2020/02/06 00:46:48;;;;;;;6.6;3.55;;;;;;;-3.29;100;96787.91;;;;
2020/02/06 00:47:49;;;;;;;6.6;3.55;;;;;;;-3.29;100;96787.91;;;;
2020/02/06 00:48:49;;;;;;;6.6;3.55;;;;;;;-3.29;100;96787.91;;;;
2020/02/06 00:49:49;;;;;;;6.6;3.55;;;;;;;-3.29;100;96787.91;;;;
2020/02/06 00:50:50;;;;;;;6.6;3.55;;;;;;;-3.29;100;96787.91;;;;
2020/02/06 00:51:50;;;;;;;6.6;3.55;;;;;;;-3.29;100;96787.91;;;;
2020/02/06 00:52:51;;;;;;;6.6;3.55;;;;;;;-3.29;100;96787.91;;;;
2020/02/06 00:53:51;;;;;;;6.6;3.55;;;;;;;-3.29;100;96787.91;;;;
2020/02/06 00:54:52;;;;;;;6.6;3.55;;;;;;;-3.29;100;96787.91;;;;
2020/02/06 00:55:52;;;;;;;6.6;3.55;;;;;;;-3.29;100;96787.91;;;;
2020/02/06 00:56:53;;;;;;;8.7;4.749999;;;;;;;-3.2;100;96807.95;;;;
2020/02/06 00:57:53;;;;;;;8.7;4.749999;;;;;;;-3.2;100;96807.95;;;;
2020/02/06 00:58:54;;;;;;;8.7;4.749999;;;;;;;-3.2;100;96807.95;;;;
2020/02/06 00:59:54;;;;;;;8.7;4.749999;;;;;;;-3.2;100;96807.95;;;;
2020/02/06 01:00:54;;;;;;;8.7;4.749999;;;;;;;-3.2;100;96807.95;;;;
2020/02/06 01:06:24;;;;;;;8.7;4.749999;;;;;;;-3.2;100;96807.95;;;;
2020/02/06 01:07:29;;;;;;;8;4.45;;;;;;;-3.25;100;96802.15;;;;
2020/02/06 01:08:30;;;;;;;8;4.45;;;;;;;-3.25;100;96802.15;;;;
2020/02/06 01:09:39;;;;;;;8;4.45;;;;;;;-3.25;100;96802.15;;;;
2020/02/06 01:10:42;;;;;;;8;4.45;;;;;;;-3.25;100;96802.15;;;;
2020/02/06 01:11:56;;;;;;;8;4.45;;;;;;;-3.25;100;96802.15;;;;
2020/02/06 01:12:56;;;;;;;8;4.45;;;;;;;-3.25;100;96802.15;;;;
2020/02/06 01:13:58;;;;;;;8;4.45;;;;;;;-3.25;100;96802.15;;;;
2020/02/06 01:15:03;;;;;;;8;4.45;;;;;;;-3.25;100;96802.15;;;;
2020/02/06 01:16:04;;;;;;;8;4.45;;;;;;;-3.25;100;96802.15;;;;
2020/02/06 01:17:17;;;;;;;7.75;4.65;;;;;;;-3.33;100;96797.47;;;;
2020/02/06 01:18:26;;;;;;;7.75;4.65;;;;;;;-3.33;100;96797.47;;;;
2020/02/06 01:19:37;;;;;;;7.75;4.65;;;;;;;-3.33;100;96797.47;;;;
2020/02/06 01:21:13;;;;;;;7.75;4.65;;;;;;;-3.33;100;96797.47;;;;
2020/02/06 01:23:00;;;;;;;7.75;4.65;;;;;;;-3.33;100;96797.47;;;;
2020/02/06 01:24:17;;;;;;;7.75;4.65;;;;;;;-3.33;100;96797.47;;;;
2020/02/06 01:25:28;;;;;;;7.75;4.65;;;;;;;-3.33;100;96797.47;;;;
2020/02/06 01:26:34;;;;;;;7.75;4.65;;;;;;;-3.33;100;96797.47;;;;
2020/02/06 01:27:34;;;;;;;7.75;4.65;;;;;;;-3.33;100;96797.47;;;;
2020/02/06 01:28:35;;;;;;;7.7;4.65;;;;;;;-3.43;100;96792.07;;;;
2020/02/06 01:29:43;;;;;;;7.7;4.65;;;;;;;-3.43;100;96792.07;;;;
2020/02/06 01:30:44;;;;;;;7.7;4.65;;;;;;;-3.43;100;96792.07;;;;
2020/02/06 01:31:48;;;;;;;7.7;4.65;;;;;;;-3.43;100;96792.07;;;;
2020/02/06 01:32:49;;;;;;;7.7;4.65;;;;;;;-3.43;100;96792.07;;;;
2020/02/06 01:33:49;;;;;;;7.7;4.65;;;;;;;-3.43;100;96792.07;;;;
2020/02/06 01:34:57;;;;;;;7.7;4.65;;;;;;;-3.43;100;96792.07;;;;
2020/02/06 01:35:57;;;;;;;7.7;4.65;;;;;;;-3.43;100;96792.07;;;;
2020/02/06 01:37:00;;;;;;;7.7;4.65;;;;;;;-3.43;100;96792.07;;;;
2020/02/06 01:38:13;;;;;;;7.7;4.65;;;;;;;-3.43;100;96792.07;;;;
2020/02/06 01:39:14;;;;;;;7.900001;4.299999;;;;;;;-3.55;100;96784.17;;;;
2020/02/06 01:40:50;;;;;;;7.900001;4.299999;;;;;;;-3.55;100;96784.17;;;;
2020/02/06 01:41:51;;;;;;;7.900001;4.299999;;;;;;;-3.55;100;96784.17;;;;
2020/02/06 01:42:51;;;;;;;7.900001;4.299999;;;;;;;-3.55;100;96784.17;;;;
2020/02/06 01:44:03;;;;;;;7.900001;4.299999;;;;;;;-3.55;100;96784.17;;;;
2020/02/06 01:45:19;;;;;;;7.900001;4.299999;;;;;;;-3.55;100;96784.17;;;;
2020/02/06 01:46:23;;;;;;;7.900001;4.299999;;;;;;;-3.55;100;96784.17;;;;
2020/02/06 01:47:27;;;;;;;7.900001;4.299999;;;;;;;-3.55;100;96784.17;;;;
2020/02/06 01:48:37;;;;;;;7.900001;4.299999;;;;;;;-3.55;100;96784.17;;;;
2020/02/06 01:49:42;;;;;;;9.549998;4.599999;;;;;;;-3.65;100;96775.66;;;;
2020/02/06 01:50:43;;;;;;;9.549998;4.599999;;;;;;;-3.65;100;96775.66;;;;
2020/02/06 01:51:52;;;;;;;9.549998;4.599999;;;;;;;-3.65;100;96775.66;;;;
2020/02/06 01:52:57;;;;;;;9.549998;4.599999;;;;;;;-3.65;100;96775.66;;;;
2020/02/06 01:53:57;;;;;;;9.549998;4.599999;;;;;;;-3.65;100;96775.66;;;;
2020/02/06 01:55:04;;;;;;;9.549998;4.599999;;;;;;;-3.65;100;96775.66;;;;
2020/02/06 01:56:17;;;;;;;9.549998;4.599999;;;;;;;-3.65;100;96775.66;;;;
2020/02/06 01:57:53;;;;;;;9.549998;4.599999;;;;;;;-3.65;100;96775.66;;;;
2020/02/06 01:58:54;;;;;;;9.549998;4.599999;;;;;;;-3.65;100;96775.66;;;;
2020/02/06 01:59:55;;;;;;;9.150002;4.400001;;;;;;;-3.72;100;96756.37;;;;
2020/02/06 02:00:57;;;;;;;9.150002;4.400001;;;;;;;-3.72;100;96756.37;;;;
2020/02/06 02:07:18;;;;;;;9.150002;4.400001;;;;;;;-3.72;100;96756.37;;;;
2020/02/06 02:08:37;;;;;;;9.150002;4.400001;;;;;;;-3.72;100;96756.37;;;;
2020/02/06 02:09:39;;;;;;;9.150002;4.400001;;;;;;;-3.72;100;96756.37;;;;
2020/02/06 02:10:51;;;;;;;8.6;4.25;;;;;;;-3.74;100;96755.22;;;;
2020/02/06 02:11:56;;;;;;;8.6;4.25;;;;;;;-3.74;100;96755.22;;;;
2020/02/06 02:12:57;;;;;;;8.6;4.25;;;;;;;-3.74;100;96755.22;;;;
2020/02/06 02:14:02;;;;;;;8.6;4.25;;;;;;;-3.74;100;96755.22;;;;
2020/02/06 02:15:03;;;;;;;8.6;4.25;;;;;;;-3.74;100;96755.22;;;;
2020/02/06 02:16:04;;;;;;;8.6;4.25;;;;;;;-3.74;100;96755.22;;;;
2020/02/06 02:17:09;;;;;;;8.6;4.25;;;;;;;-3.74;100;96755.22;;;;
2020/02/06 02:18:09;;;;;;;8.6;4.25;;;;;;;-3.74;100;96755.22;;;;
2020/02/06 02:19:15;;;;;;;8.6;4.25;;;;;;;-3.74;100;96755.22;;;;
2020/02/06 02:20:16;;;;;;;8.6;4.25;;;;;;;-3.74;100;96755.22;;;;
2020/02/06 02:21:17;;;;;;;7.85;4.249999;;;;;;;-3.76;100;96735.13;;;;
2020/02/06 02:22:17;;;;;;;7.85;4.249999;;;;;;;-3.76;100;96735.13;;;;
2020/02/06 02:23:39;;;;;;;7.85;4.249999;;;;;;;-3.76;100;96735.13;;;;
2020/02/06 02:24:43;;;;;;;7.85;4.249999;;;;;;;-3.76;100;96735.13;;;;
2020/02/06 02:25:44;;;;;;;7.85;4.249999;;;;;;;-3.76;100;96735.13;;;;
2020/02/06 02:26:44;;;;;;;7.85;4.249999;;;;;;;-3.76;100;96735.13;;;;
2020/02/06 02:27:44;;;;;;;7.85;4.249999;;;;;;;-3.76;100;96735.13;;;;
2020/02/06 02:28:45;;;;;;;7.85;4.249999;;;;;;;-3.76;100;96735.13;;;;
2020/02/06 02:29:55;;;;;;;7.85;4.249999;;;;;;;-3.76;100;96735.13;;;;
2020/02/06 02:36:09;;;;;;;7.450001;4.55;;;;;;;-3.84;100;96715.98;;;;
2020/02/06 02:37:13;;;;;;;7.450001;4.55;;;;;;;-3.84;100;96715.98;;;;
2020/02/06 02:38:14;;;;;;;7.450001;4.55;;;;;;;-3.84;100;96715.98;;;;
2020/02/06 02:39:15;;;;;;;7.450001;4.55;;;;;;;-3.84;100;96715.98;;;;
2020/02/06 02:41:12;;;;;;;7.450001;4.55;;;;;;;-3.84;100;96715.98;;;;
2020/02/06 02:42:13;;;;;;;7.1;3.999999;;;;;;;-3.84;100;96703.25;;;;
2020/02/06 02:43:32;;;;;;;7.1;3.999999;;;;;;;-3.84;100;96703.25;;;;
2020/02/06 02:44:32;;;;;;;7.1;3.999999;;;;;;;-3.84;100;96703.25;;;;
2020/02/06 02:45:33;;;;;;;7.1;3.999999;;;;;;;-3.84;100;96703.25;;;;
2020/02/06 02:46:36;;;;;;;7.1;3.999999;;;;;;;-3.84;100;96703.25;;;;
2020/02/06 02:47:36;;;;;;;7.1;3.999999;;;;;;;-3.84;100;96703.25;;;;
2020/02/06 02:48:37;;;;;;;7.1;3.999999;;;;;;;-3.84;100;96703.25;;;;
2020/02/06 02:49:37;;;;;;;7.1;3.999999;;;;;;;-3.84;100;96703.25;;;;
2020/02/06 02:50:39;;;;;;;7.1;3.999999;;;;;;;-3.84;100;96703.25;;;;
2020/02/06 02:51:39;;;;;;;7.1;3.999999;;;;;;;-3.84;100;96703.25;;;;
2020/02/06 02:52:39;;;;;;;7.1;3.999999;;;;;;;-3.84;100;96703.25;;;;
2020/02/06 02:53:40;;;;;;;8.4;4.700001;;;;;;;-3.87;100;96704.35;;;;
2020/02/06 02:54:40;;;;;;;8.4;4.700001;;;;;;;-3.87;100;96704.35;;;;
2020/02/06 02:55:41;;;;;;;8.4;4.700001;;;;;;;-3.87;100;96704.35;;;;
2020/02/06 02:56:41;;;;;;;8.4;4.700001;;;;;;;-3.87;100;96704.35;;;;
2020/02/06 02:57:42;;;;;;;8.4;4.700001;;;;;;;-3.87;100;96704.35;;;;
2020/02/06 02:58:42;;;;;;;8.4;4.700001;;;;;;;-3.87;100;96704.35;;;;
2020/02/06 02:59:43;;;;;;;8.4;4.700001;;;;;;;-3.87;100;96704.35;;;;
2020/02/06 03:00:43;;;;;;;8.4;4.700001;;;;;;;-3.87;100;96704.35;;;;
2020/02/06 03:01:49;;;;;;;8.4;4.700001;;;;;;;-3.87;100;96704.35;;;;
2020/02/06 03:02:50;;;;;;;8.4;4.700001;;;;;;;-3.87;100;96704.35;;;;
2020/02/06 03:04:14;;;;;;;8.4;4.700001;;;;;;;-3.87;100;96704.35;;;;
2020/02/06 03:05:18;;;;;;;8.4;4.700001;;;;;;;-3.87;100;96704.35;;;;
2020/02/06 03:06:19;;;;;;;8.4;4.700001;;;;;;;-3.87;100;96704.35;;;;
2020/02/06 03:07:23;;;;;;;8.4;4.700001;;;;;;;-3.87;100;96704.35;;;;
2020/02/06 03:08:30;;;;;;;8.4;4.700001;;;;;;;-3.87;100;96704.35;;;;
2020/02/06 03:09:34;;;;;;;8.4;4.700001;;;;;;;-3.87;100;96704.35;;;;
2020/02/06 03:10:41;;;;;;;8.4;4.700001;;;;;;;-3.87;100;96704.35;;;;
2020/02/06 03:11:44;;;;;;;8.4;4.700001;;;;;;;-3.87;100;96704.35;;;;
2020/02/06 03:12:50;;;;;;;8.4;4.700001;;;;;;;-3.87;100;96704.35;;;;
2020/02/06 03:14:07;;;;;;;8.4;4.700001;;;;;;;-3.87;100;96704.35;;;;
2020/02/06 03:15:14;;;;;;;7.299999;3.9;;;;;;;-3.83;100;96693.48;;;;
2020/02/06 03:21:25;;;;;;;7.299999;3.9;;;;;;;-3.83;100;96693.48;;;;
2020/02/06 03:22:26;;;;;;;7.299999;3.9;;;;;;;-3.83;100;96693.48;;;;
2020/02/06 03:23:26;;;;;;;7.299999;3.9;;;;;;;-3.83;100;96693.48;;;;
2020/02/06 03:24:28;;;;;;;7.299999;3.9;;;;;;;-3.83;100;96693.48;;;;
2020/02/06 03:25:28;;;;;;;7.95;3.75;;;;;;;-3.9;100;96700.59;;;;
2020/02/06 03:26:29;;;;;;;7.95;3.75;;;;;;;-3.9;100;96700.59;;;;
2020/02/06 03:27:31;;;;;;;7.95;3.75;;;;;;;-3.9;100;96700.59;;;;
2020/02/06 03:28:31;;;;;;;7.95;3.75;;;;;;;-3.9;100;96700.59;;;;
2020/02/06 03:29:32;;;;;;;7.95;3.75;;;;;;;-3.9;100;96700.59;;;;
2020/02/06 03:30:32;;;;;;;7.95;3.75;;;;;;;-3.9;100;96700.59;;;;
2020/02/06 03:31:33;;;;;;;7.95;3.75;;;;;;;-3.9;100;96700.59;;;;
2020/02/06 03:32:35;;;;;;;7.95;3.75;;;;;;;-3.9;100;96700.59;;;;
2020/02/06 03:33:36;;;;;;;7.95;3.75;;;;;;;-3.9;100;96700.59;;;;
2020/02/06 03:34:37;;;;;;;7.95;3.75;;;;;;;-3.9;100;96700.59;;;;
2020/02/06 03:35:37;;;;;;;6.9;3.6;;;;;;;-3.95;100;96693.08;;;;
2020/02/06 03:36:37;;;;;;;6.9;3.6;;;;;;;-3.95;100;96693.08;;;;
2020/02/06 03:37:38;;;;;;;6.9;3.6;;;;;;;-3.95;100;96693.08;;;;
2020/02/06 03:38:38;;;;;;;6.9;3.6;;;;;;;-3.95;100;96693.08;;;;
2020/02/06 03:39:39;;;;;;;6.9;3.6;;;;;;;-3.95;100;96693.08;;;;
2020/02/06 03:40:40;;;;;;;6.9;3.6;;;;;;;-3.95;100;96693.08;;;;
2020/02/06 03:41:40;;;;;;;6.9;3.6;;;;;;;-3.95;100;96693.08;;;;
2020/02/06 03:42:41;;;;;;;6.9;3.6;;;;;;;-3.95;100;96693.08;;;;
2020/02/06 03:43:41;;;;;;;6.9;3.6;;;;;;;-3.95;100;96693.08;;;;
2020/02/06 03:44:42;;;;;;;6.9;3.6;;;;;;;-3.95;100;96693.08;;;;
2020/02/06 03:45:43;;;;;;;6.9;3.6;;;;;;;-3.95;100;96693.08;;;;
2020/02/06 03:46:44;;;;;;;8.6;3.750001;;;;;;;-4.01;100;96682.08;;;;
2020/02/06 03:47:44;;;;;;;8.6;3.750001;;;;;;;-4.01;100;96682.08;;;;
2020/02/06 03:48:46;;;;;;;8.6;3.750001;;;;;;;-4.01;100;96682.08;;;;
2020/02/06 03:49:47;;;;;;;8.6;3.750001;;;;;;;-4.01;100;96682.08;;;;
2020/02/06 03:50:47;;;;;;;8.6;3.750001;;;;;;;-4.01;100;96682.08;;;;
2020/02/06 03:51:49;;;;;;;8.6;3.750001;;;;;;;-4.01;100;96682.08;;;;
2020/02/06 03:52:49;;;;;;;8.6;3.750001;;;;;;;-4.01;100;96682.08;;;;
2020/02/06 03:53:50;;;;;;;8.6;3.750001;;;;;;;-4.01;100;96682.08;;;;
2020/02/06 03:54:50;;;;;;;8.6;3.750001;;;;;;;-4.01;100;96682.08;;;;
2020/02/06 03:55:51;;;;;;;8.6;3.750001;;;;;;;-4.01;100;96682.08;;;;
2020/02/06 03:56:54;;;;;;;7.55;3.5;;;;;;;-4.09;100;96676.12;;;;
2020/02/06 03:57:55;;;;;;;7.55;3.5;;;;;;;-4.09;100;96676.12;;;;
2020/02/06 03:59:00;;;;;;;7.55;3.5;;;;;;;-4.09;100;96676.12;;;;
2020/02/06 04:00:07;;;;;;;7.55;3.5;;;;;;;-4.09;100;96676.12;;;;
2020/02/06 04:01:58;;;;;;;7.55;3.5;;;;;;;-4.09;100;96676.12;;;;
2020/02/06 04:03:02;;;;;;;7.55;3.5;;;;;;;-4.09;100;96676.12;;;;
2020/02/06 04:04:37;;;;;;;7.55;3.5;;;;;;;-4.09;100;96676.12;;;;
2020/02/06 04:05:46;;;;;;;7.55;3.5;;;;;;;-4.09;100;96676.12;;;;
2020/02/06 04:07:01;;;;;;;7.55;3.5;;;;;;;-4.09;100;96676.12;;;;
2020/02/06 04:08:25;;;;;;;8.75;3.65;;;;;;;-4.14;100;96686.6;;;;
2020/02/06 04:09:26;;;;;;;8.75;3.65;;;;;;;-4.14;100;96686.6;;;;
2020/02/06 04:10:27;;;;;;;8.75;3.65;;;;;;;-4.14;100;96686.6;;;;
2020/02/06 04:11:27;;;;;;;8.75;3.65;;;;;;;-4.14;100;96686.6;;;;
2020/02/06 04:12:28;;;;;;;8.75;3.65;;;;;;;-4.14;100;96686.6;;;;
2020/02/06 04:13:28;;;;;;;8.75;3.65;;;;;;;-4.14;100;96686.6;;;;
2020/02/06 04:14:29;;;;;;;8.75;3.65;;;;;;;-4.14;100;96686.6;;;;
2020/02/06 04:15:29;;;;;;;8.75;3.65;;;;;;;-4.14;100;96686.6;;;;
2020/02/06 04:16:30;;;;;;;8.75;3.65;;;;;;;-4.14;100;96686.6;;;;
2020/02/06 04:17:31;;;;;;;8.75;3.65;;;;;;;-4.14;100;96686.6;;;;
2020/02/06 04:18:31;;;;;;;5.55;3.45;;;;;;;-4.17;100;96665.28;;;;
2020/02/06 04:19:32;;;;;;;5.55;3.45;;;;;;;-4.17;100;96665.28;;;;
2020/02/06 04:20:32;;;;;;;5.55;3.45;;;;;;;-4.17;100;96665.28;;;;
2020/02/06 04:21:33;;;;;;;5.55;3.45;;;;;;;-4.17;100;96665.28;;;;
2020/02/06 04:22:34;;;;;;;5.55;3.45;;;;;;;-4.17;100;96665.28;;;;
2020/02/06 04:23:34;;;;;;;5.55;3.45;;;;;;;-4.17;100;96665.28;;;;
2020/02/06 04:24:35;;;;;;;5.55;3.45;;;;;;;-4.17;100;96665.28;;;;
2020/02/06 04:25:35;;;;;;;5.55;3.45;;;;;;;-4.17;100;96665.28;;;;
2020/02/06 04:26:36;;;;;;;5.55;3.45;;;;;;;-4.17;100;96665.28;;;;
2020/02/06 04:27:36;;;;;;;5.55;3.45;;;;;;;-4.17;100;96665.28;;;;
2020/02/06 04:28:37;;;;;;;8.450001;3.5;;;;;;;-4.24;100;96656.99;;;;
2020/02/06 04:29:37;;;;;;;8.450001;3.5;;;;;;;-4.24;100;96656.99;;;;
2020/02/06 04:30:38;;;;;;;8.450001;3.5;;;;;;;-4.24;100;96656.99;;;;
2020/02/06 04:31:39;;;;;;;8.450001;3.5;;;;;;;-4.24;100;96656.99;;;;
2020/02/06 04:32:39;;;;;;;8.450001;3.5;;;;;;;-4.24;100;96656.99;;;;
2020/02/06 04:33:40;;;;;;;8.450001;3.5;;;;;;;-4.24;100;96656.99;;;;
2020/02/06 04:34:43;;;;;;;8.450001;3.5;;;;;;;-4.24;100;96656.99;;;;
2020/02/06 04:35:44;;;;;;;8.450001;3.5;;;;;;;-4.24;100;96656.99;;;;
2020/02/06 04:36:45;;;;;;;8.450001;3.5;;;;;;;-4.24;100;96656.99;;;;
2020/02/06 04:37:50;;;;;;;8.450001;3.5;;;;;;;-4.24;100;96656.99;;;;
2020/02/06 04:38:50;;;;;;;8.450001;3.5;;;;;;;-4.24;100;96656.99;;;;
2020/02/06 04:39:52;;;;;;;6.599999;3.8;;;;;;;-4.33;100;96655.03;;;;
2020/02/06 04:40:53;;;;;;;6.599999;3.8;;;;;;;-4.33;100;96655.03;;;;
2020/02/06 04:41:53;;;;;;;6.599999;3.8;;;;;;;-4.33;100;96655.03;;;;
2020/02/06 04:42:55;;;;;;;6.599999;3.8;;;;;;;-4.33;100;96655.03;;;;
2020/02/06 04:43:55;;;;;;;6.599999;3.8;;;;;;;-4.33;100;96655.03;;;;
2020/02/06 04:45:00;;;;;;;6.599999;3.8;;;;;;;-4.33;100;96655.03;;;;
2020/02/06 04:46:01;;;;;;;6.599999;3.8;;;;;;;-4.33;100;96655.03;;;;
2020/02/06 04:47:04;;;;;;;6.599999;3.8;;;;;;;-4.33;100;96655.03;;;;
2020/02/06 04:48:04;;;;;;;6.599999;3.8;;;;;;;-4.33;100;96655.03;;;;
2020/02/06 04:49:05;;;;;;;6.599999;3.8;;;;;;;-4.33;100;96655.03;;;;
2020/02/06 04:50:06;;;;;;;6.45;3.8;;;;;;;-4.39;100;96641.47;;;;
2020/02/06 04:51:08;;;;;;;6.45;3.8;;;;;;;-4.39;100;96641.47;;;;
2020/02/06 04:52:09;;;;;;;6.45;3.8;;;;;;;-4.39;100;96641.47;;;;
2020/02/06 04:53:11;;;;;;;6.45;3.8;;;;;;;-4.39;100;96641.47;;;;
2020/02/06 04:54:14;;;;;;;6.45;3.8;;;;;;;-4.39;100;96641.47;;;;
2020/02/06 04:55:18;;;;;;;6.45;3.8;;;;;;;-4.39;100;96641.47;;;;
2020/02/06 04:56:22;;;;;;;6.45;3.8;;;;;;;-4.39;100;96641.47;;;;
2020/02/06 04:57:29;;;;;;;6.45;3.8;;;;;;;-4.39;100;96641.47;;;;
2020/02/06 04:58:33;;;;;;;6.45;3.8;;;;;;;-4.39;100;96641.47;;;;
2020/02/06 04:59:37;;;;;;;6.45;3.8;;;;;;;-4.39;100;96641.47;;;;
2020/02/06 05:00:39;;;;;;;6.45;3.8;;;;;;;-4.39;100;96641.47;;;;
2020/02/06 05:01:39;;;;;;;6.45;3.8;;;;;;;-4.39;100;96641.47;;;;
2020/02/06 05:02:40;;;;;;;6.45;3.8;;;;;;;-4.39;100;96641.47;;;;
2020/02/06 05:03:40;;;;;;;6.45;3.8;;;;;;;-4.39;100;96641.47;;;;
2020/02/06 05:04:41;;;;;;;6.45;3.8;;;;;;;-4.39;100;96641.47;;;;
2020/02/06 05:05:41;;;;;;;6.45;3.8;;;;;;;-4.39;100;96641.47;;;;
2020/02/06 05:06:42;;;;;;;6.45;3.8;;;;;;;-4.39;100;96641.47;;;;
2020/02/06 05:07:43;;;;;;;6.45;3.8;;;;;;;-4.39;100;96641.47;;;;
2020/02/06 05:08:43;;;;;;;6.45;3.8;;;;;;;-4.39;100;96641.47;;;;
2020/02/06 05:09:44;;;;;;;6.45;3.8;;;;;;;-4.39;100;96641.47;;;;
2020/02/06 05:10:45;;;;;;;6.45;3.8;;;;;;;-4.39;100;96641.47;;;;
2020/02/06 05:11:45;;;;;;;7.5;3.7;;;;;;;-4.37;100;96630.35;;;;
2020/02/06 05:12:46;;;;;;;7.5;3.7;;;;;;;-4.37;100;96630.35;;;;
2020/02/06 05:13:46;;;;;;;7.5;3.7;;;;;;;-4.37;100;96630.35;;;;
2020/02/06 05:14:46;;;;;;;7.5;3.7;;;;;;;-4.37;100;96630.35;;;;
2020/02/06 05:15:47;;;;;;;7.5;3.7;;;;;;;-4.37;100;96630.35;;;;
2020/02/06 05:16:47;;;;;;;7.5;3.7;;;;;;;-4.37;100;96630.35;;;;
2020/02/06 05:17:49;;;;;;;7.5;3.7;;;;;;;-4.37;100;96630.35;;;;
2020/02/06 05:18:57;;;;;;;7.5;3.7;;;;;;;-4.37;100;96630.35;;;;
2020/02/06 05:20:04;;;;;;;7.5;3.7;;;;;;;-4.37;100;96630.35;;;;
2020/02/06 05:21:12;;;;;;;7.5;3.7;;;;;;;-4.37;100;96630.35;;;;
2020/02/06 05:22:50;;;;;;;4.400001;3.15;;;;;;;-4.39;100;96627.8;;;;
2020/02/06 05:24:00;;;;;;;4.400001;3.15;;;;;;;-4.39;100;96627.8;;;;
2020/02/06 05:25:07;;;;;;;4.400001;3.15;;;;;;;-4.39;100;96627.8;;;;
2020/02/06 05:26:14;;;;;;;4.400001;3.15;;;;;;;-4.39;100;96627.8;;;;
2020/02/06 05:27:25;;;;;;;4.400001;3.15;;;;;;;-4.39;100;96627.8;;;;
2020/02/06 05:28:37;;;;;;;4.400001;3.15;;;;;;;-4.39;100;96627.8;;;;
2020/02/06 05:29:44;;;;;;;4.400001;3.15;;;;;;;-4.39;100;96627.8;;;;
2020/02/06 05:30:51;;;;;;;4.400001;3.15;;;;;;;-4.39;100;96627.8;;;;
2020/02/06 05:37:09;;;;;;;5.5;3.45;;;;;;;-4.32;100;96607.54;;;;
2020/02/06 05:38:17;;;;;;;5.5;3.45;;;;;;;-4.32;100;96607.54;;;;
2020/02/06 05:39:23;;;;;;;5.5;3.45;;;;;;;-4.32;100;96607.54;;;;
2020/02/06 05:40:38;;;;;;;5.5;3.45;;;;;;;-4.32;100;96607.54;;;;
2020/02/06 05:42:25;;;;;;;5.5;3.45;;;;;;;-4.32;100;96607.54;;;;
2020/02/06 05:43:33;;;;;;;4.95;2.95;;;;;;;-4.28;100;96610.29;;;;
2020/02/06 05:44:40;;;;;;;4.95;2.95;;;;;;;-4.28;100;96610.29;;;;
2020/02/06 05:45:47;;;;;;;4.95;2.95;;;;;;;-4.28;100;96610.29;;;;
2020/02/06 05:46:56;;;;;;;4.95;2.95;;;;;;;-4.28;100;96610.29;;;;
2020/02/06 05:48:04;;;;;;;4.95;2.95;;;;;;;-4.28;100;96610.29;;;;
2020/02/06 05:49:10;;;;;;;4.95;2.95;;;;;;;-4.28;100;96610.29;;;;
2020/02/06 05:50:23;;;;;;;4.95;2.95;;;;;;;-4.28;100;96610.29;;;;
2020/02/06 05:56:41;;;;;;;5.7;2.95;;;;;;;-4.33;100;96604.52;;;;
2020/02/06 05:57:54;;;;;;;5.7;2.95;;;;;;;-4.33;100;96604.52;;;;
2020/02/06 05:59:06;;;;;;;5.7;2.95;;;;;;;-4.33;100;96604.52;;;;
2020/02/06 06:00:15;;;;;;;5.7;2.95;;;;;;;-4.33;100;96604.52;;;;
2020/02/06 06:01:29;;;;;;;5.7;2.95;;;;;;;-4.33;100;96604.52;;;;
2020/02/06 06:02:38;;;;;;;5.7;2.95;;;;;;;-4.33;100;96604.52;;;;
2020/02/06 06:08:45;;;;;;;5.050001;2.8;;;;;;;-4.27;100;96597.06;;;;
2020/02/06 06:09:55;;;;;;;5.050001;2.8;;;;;;;-4.27;100;96597.06;;;;
2020/02/06 06:16:05;;;;;;;4.95;2.65;;;;;;;-4.15;100;96597.89;;;;
2020/02/06 06:17:13;;;;;;;4.95;2.65;;;;;;;-4.15;100;96597.89;;;;
2020/02/06 06:18:21;;;;;;;4.95;2.65;;;;;;;-4.15;100;96597.89;;;;
2020/02/06 06:24:48;;;;;;;4.95;2.65;;;;;;;-4.15;100;96597.89;;;;
2020/02/06 06:25:56;;;;;;;5.45;3.2;;;;;;;-4.15;100;96602.31;;;;
2020/02/06 06:27:09;;;;;;;5.45;3.2;;;;;;;-4.15;100;96602.31;;;;
2020/02/06 06:32:56;;;;;;;5.45;3.2;;;;;;;-4.15;100;96602.31;;;;
2020/02/06 06:34:13;;;;;;;5.45;3.2;;;;;;;-4.15;100;96602.31;;;;
2020/02/06 06:35:19;;;;;;;5.45;3.2;;;;;;;-4.15;100;96602.31;;;;
2020/02/06 06:36:32;;;;;;;4.400001;3;;;;;;;-4.16;100;96612.93;;;;
2020/02/06 06:37:35;;;;;;;4.400001;3;;;;;;;-4.16;100;96612.93;;;;
2020/02/06 06:38:36;;;;;;;4.400001;3;;;;;;;-4.16;100;96612.93;;;;
2020/02/06 06:39:39;;;;;;;4.400001;3;;;;;;;-4.16;100;96612.93;;;;
2020/02/06 06:40:44;;;;;;;4.400001;3;;;;;;;-4.16;100;96612.93;;;;
2020/02/06 06:41:45;;;;;;;4.400001;3;;;;;;;-4.16;100;96612.93;;;;
2020/02/06 06:42:46;;;;;;;4.400001;3;;;;;;;-4.16;100;96612.93;;;;
2020/02/06 06:43:47;;;;;;;4.400001;3;;;;;;;-4.16;100;96612.93;;;;
2020/02/06 06:44:48;;;;;;;4.400001;3;;;;;;;-4.16;100;96612.93;;;;
2020/02/06 06:45:52;;;;;;;4.400001;3;;;;;;;-4.16;100;96612.93;;;;
2020/02/06 06:46:54;;;;;;;5.799999;3.1;;;;;;;-4.2;100;96622.44;;;;
2020/02/06 06:47:55;;;;;;;5.799999;3.1;;;;;;;-4.2;100;96622.44;;;;
2020/02/06 06:48:55;;;;;;;5.799999;3.1;;;;;;;-4.2;100;96622.44;;;;
2020/02/06 06:49:56;;;;;;;5.799999;3.1;;;;;;;-4.2;100;96622.44;;;;
2020/02/06 06:50:56;;;;;;;5.799999;3.1;;;;;;;-4.2;100;96622.44;;;;
2020/02/06 06:51:57;;;;;;;5.799999;3.1;;;;;;;-4.2;100;96622.44;;;;
2020/02/06 06:52:58;;;;;;;5.799999;3.1;;;;;;;-4.2;100;96622.44;;;;
2020/02/06 06:53:58;;;;;;;5.799999;3.1;;;;;;;-4.2;100;96622.44;;;;
2020/02/06 06:54:59;;;;;;;5.799999;3.1;;;;;;;-4.2;100;96622.44;;;;
2020/02/06 06:55:59;;;;;;;5.799999;3.1;;;;;;;-4.2;100;96622.44;;;;
2020/02/06 06:56:59;;;;;;;5.799999;3.1;;;;;;;-4.2;100;96622.44;;;;
2020/02/06 06:58:00;;;;;;;5.15;3.3;;;;;;;-4.21;100;96625.12;;;;
2020/02/06 06:59:00;;;;;;;5.15;3.3;;;;;;;-4.21;100;96625.12;;;;
2020/02/06 07:00:01;;;;;;;5.15;3.3;;;;;;;-4.21;100;96625.12;;;;
2020/02/06 07:01:01;;;;;;;5.15;3.3;;;;;;;-4.21;100;96625.12;;;;
2020/02/06 07:02:03;;;;;;;5.15;3.3;;;;;;;-4.21;100;96625.12;;;;
2020/02/06 07:03:03;;;;;;;5.15;3.3;;;;;;;-4.21;100;96625.12;;;;
2020/02/06 07:04:03;;;;;;;5.15;3.3;;;;;;;-4.21;100;96625.12;;;;
2020/02/06 07:05:04;;;;;;;5.15;3.3;;;;;;;-4.21;100;96625.12;;;;
2020/02/06 07:06:06;;;;;;;5.15;3.3;;;;;;;-4.21;100;96625.12;;;;
2020/02/06 07:07:07;;;;;;;5.15;3.3;;;;;;;-4.21;100;96625.12;;;;
2020/02/06 07:08:07;;;;;;;5.05;3.400001;;;;;;;-4.14;100;96629.91;;;;
2020/02/06 07:09:08;;;;;;;5.05;3.400001;;;;;;;-4.14;100;96629.91;;;;
2020/02/06 07:10:24;;;;;;;5.05;3.400001;;;;;;;-4.14;100;96629.91;;;;
2020/02/06 07:11:25;;;;;;;5.05;3.400001;;;;;;;-4.14;100;96629.91;;;;
2020/02/06 07:12:25;;;;;;;5.05;3.400001;;;;;;;-4.14;100;96629.91;;;;
2020/02/06 07:13:26;;;;;;;5.05;3.400001;;;;;;;-4.14;100;96629.91;;;;
2020/02/06 07:14:26;;;;;;;5.05;3.400001;;;;;;;-4.14;100;96629.91;;;;
2020/02/06 07:15:28;;;;;;;5.05;3.400001;;;;;;;-4.14;100;96629.91;;;;
2020/02/06 07:16:34;;;;;;;5.05;3.400001;;;;;;;-4.14;100;96629.91;;;;
2020/02/06 07:17:41;;;;;;;5.05;3.400001;;;;;;;-4.14;100;96629.91;;;;
2020/02/06 07:18:42;;;;;;;5.05;3.400001;;;;;;;-4.14;100;96629.91;;;;
2020/02/06 07:19:42;;;;;;;6.2;3.4;;;;;;;-3.88;100;96641.55;;;;
2020/02/06 07:20:43;;;;;;;6.2;3.4;;;;;;;-3.88;100;96641.55;;;;
2020/02/06 07:21:43;;;;;;;6.2;3.4;;;;;;;-3.88;100;96641.55;;;;